createdAt,value
2022-08-03T00:02:22.026Z,33.13
2022-08-03T00:04:51.901Z,37.92
2022-08-03T00:09:52.174Z,33.45
2022-08-03T00:12:22.401Z,42.30
2022-08-03T00:17:21.556Z,39.05
2022-08-03T00:19:52.515Z,50.90
2022-08-03T00:22:22.265Z,41.22
2022-08-03T00:24:54.210Z,38.25
2022-08-03T00:29:57.610Z,34.58
2022-08-03T00:32:30.614Z,35.42
2022-08-03T00:37:40.717Z,38.03
2022-08-03T00:43:12.662Z,36.63
2022-08-03T00:45:44.754Z,40.75
2022-08-03T00:48:32.234Z,32.72
2022-08-03T00:51:04.113Z,39.15
2022-08-03T00:53:34.206Z,38.75
2022-08-03T00:56:05.122Z,33.83
2022-08-03T00:58:35.104Z,41.60
2022-08-03T01:03:38.782Z,47.55
2022-08-03T01:08:56.081Z,34.72
2022-08-03T01:14:18.675Z,41.35
2022-08-03T01:17:27.205Z,40.92
2022-08-03T01:20:02.611Z,49.65
2022-08-03T01:23:02.261Z,41.80
2022-08-03T01:25:44.053Z,38.28
2022-08-03T01:28:51.127Z,38.72
2022-08-03T01:34:01.340Z,37.78
2022-08-03T01:36:46.217Z,37.65
2022-08-03T01:39:21.138Z,37.08
2022-08-03T01:42:00.442Z,40.78
2022-08-03T01:44:32.995Z,34.92
2022-08-03T01:47:05.825Z,36.00
2022-08-03T01:49:41.473Z,35.13
2022-08-03T01:52:13.942Z,36.55
2022-08-03T01:54:46.752Z,37.30
2022-08-03T01:57:17.571Z,34.17
2022-08-03T01:59:50.952Z,47.13
2022-08-03T02:02:33.482Z,34.40
2022-08-03T02:05:10.969Z,31.90
2022-08-03T02:07:43.813Z,34.25
2022-08-03T02:10:34.810Z,32.38
2022-08-03T02:13:09.376Z,35.50
2022-08-03T02:15:40.619Z,38.95
2022-08-03T02:18:12.931Z,40.35
2022-08-03T02:20:45.830Z,40.15
2022-08-03T02:23:19.417Z,36.45
2022-08-03T02:25:54.748Z,39.10
2022-08-03T02:28:33.371Z,32.90
2022-08-03T02:31:16.893Z,36.13
2022-08-03T02:34:03.163Z,34.83
2022-08-03T02:36:37.993Z,32.97
2022-08-03T02:39:11.421Z,39.10
2022-08-03T02:41:49.166Z,30.67
2022-08-03T02:44:27.980Z,35.13
2022-08-03T02:47:03.402Z,37.25
2022-08-03T02:49:49.500Z,39.03
2022-08-03T02:52:23.154Z,34.10
2022-08-03T02:54:57.594Z,33.13
2022-08-03T02:57:30.323Z,35.17
2022-08-03T03:00:01.405Z,39.58
2022-08-03T03:02:32.711Z,36.97
2022-08-03T03:05:53.360Z,41.13
2022-08-03T03:07:56.178Z,40.70
2022-08-03T03:10:27.271Z,42.63
2022-08-03T03:12:59.823Z,49.15
2022-08-03T03:15:32.296Z,48.28
2022-08-03T03:18:03.068Z,46.08
2022-08-03T03:20:34.977Z,44.10
2022-08-03T03:23:06.649Z,46.90
2022-08-03T03:25:38.115Z,41.67
2022-08-03T03:28:09.219Z,51.30
2022-08-03T03:30:39.552Z,45.30
2022-08-03T03:33:09.710Z,46.78
2022-08-03T03:35:40.356Z,50.45
2022-08-03T03:38:12.712Z,46.25
2022-08-03T03:40:43.163Z,49.20
2022-08-03T03:43:14.127Z,59.58
2022-08-03T03:45:44.672Z,49.17
2022-08-03T03:48:14.633Z,54.03
2022-08-03T03:50:46.075Z,54.88
2022-08-03T03:53:16.489Z,60.42
2022-08-03T03:56:02.208Z,50.38
2022-08-03T03:58:34.362Z,49.85
2022-08-03T04:01:04.414Z,48.80
2022-08-03T04:03:34.215Z,52.65
2022-08-03T04:09:10.218Z,33.58
2022-08-03T04:11:43.256Z,46.92
2022-08-03T04:14:35.516Z,44.45
2022-08-03T04:17:07.876Z,45.03
2022-08-03T04:19:43.533Z,46.85
2022-08-03T04:22:18.154Z,50.05
2022-08-03T04:24:51.259Z,49.50
2022-08-03T04:27:25.103Z,43.38
2022-08-03T04:29:58.403Z,39.05
2022-08-03T04:32:29.884Z,42.40
2022-08-03T04:35:00.284Z,47.90
2022-08-03T04:37:53.134Z,44.58
2022-08-03T04:40:29.789Z,44.40
2022-08-03T04:43:01.187Z,39.70
2022-08-03T04:45:33.010Z,52.83
2022-08-03T04:48:04.082Z,54.50
2022-08-03T04:50:35.036Z,45.17
2022-08-03T04:53:09.985Z,42.75
2022-08-03T04:55:40.094Z,41.63
2022-08-03T05:00:39.265Z,45.20
2022-08-03T05:06:01.818Z,37.55
2022-08-03T05:08:45.231Z,40.92
2022-08-03T05:11:18.203Z,44.05
2022-08-03T05:13:50.301Z,49.55
2022-08-03T05:16:20.580Z,49.85
2022-08-03T05:18:50.304Z,43.95
2022-08-03T05:23:49.214Z,39.17
2022-08-03T05:28:48.827Z,35.85
2022-08-03T05:31:21.831Z,41.75
2022-08-03T05:33:51.803Z,46.03
2022-08-03T05:36:21.550Z,40.75
2022-08-03T05:41:36.435Z,43.80
2022-08-03T05:44:07.846Z,38.50
2022-08-03T05:46:38.110Z,42.58
2022-08-03T05:49:07.891Z,39.00
2022-08-03T05:51:38.647Z,36.80
2022-08-03T05:54:08.452Z,34.45
2022-08-03T05:56:38.649Z,46.10
2022-08-03T05:59:35.787Z,38.70
2022-08-03T06:01:59.068Z,43.50
2022-08-03T06:04:28.876Z,43.00
2022-08-03T06:06:58.927Z,43.58
2022-08-03T06:09:31.835Z,43.90
2022-08-03T06:12:20.496Z,47.28
2022-08-03T06:14:50.765Z,47.40
2022-08-03T06:17:20.697Z,36.78
2022-08-03T06:22:22.134Z,38.05
2022-08-03T06:27:36.339Z,39.03
2022-08-03T06:30:09.697Z,40.38
2022-08-03T06:32:41.730Z,35.75
2022-08-03T06:35:22.297Z,41.10
2022-08-03T06:37:55.304Z,41.45
2022-08-03T06:40:32.863Z,40.42
2022-08-03T06:43:07.537Z,41.28
2022-08-03T06:45:40.687Z,38.28
2022-08-03T06:50:43.227Z,46.65
2022-08-03T06:53:18.257Z,51.83
2022-08-03T06:55:54.627Z,49.80
2022-08-03T06:58:25.162Z,47.80
2022-08-03T07:03:25.536Z,40.30
2022-08-03T07:08:33.956Z,46.80
2022-08-03T07:11:04.644Z,42.58
2022-08-03T07:13:34.456Z,40.75
2022-08-03T07:18:33.328Z,42.28
2022-08-03T07:21:03.056Z,45.28
2022-08-03T07:23:32.806Z,41.25
2022-08-03T07:26:02.886Z,37.33
2022-08-03T07:28:32.790Z,43.60
2022-08-03T07:31:02.554Z,39.08
2022-08-03T07:36:01.512Z,40.28
2022-08-03T07:38:31.496Z,39.35
2022-08-03T07:41:01.186Z,39.30
2022-08-03T07:43:30.991Z,42.00
2022-08-03T07:48:30.369Z,38.45
2022-08-03T07:51:00.419Z,38.85
2022-08-03T07:53:30.194Z,41.85
2022-08-03T07:58:31.296Z,39.70
2022-08-03T08:03:30.373Z,44.15
2022-08-03T08:06:20.661Z,46.60
2022-08-03T08:08:50.722Z,41.17
2022-08-03T08:11:20.568Z,50.78
2022-08-03T08:13:50.634Z,56.35
2022-08-03T08:16:20.380Z,45.92
2022-08-03T08:21:20.382Z,50.03
2022-08-03T08:23:56.918Z,52.90
2022-08-03T08:26:27.969Z,57.00
2022-08-03T08:31:27.265Z,53.05
2022-08-03T08:34:04.936Z,51.50
2022-08-03T08:36:36.576Z,60.30
2022-08-03T08:39:06.711Z,52.97
2022-08-03T08:44:07.099Z,50.05
2022-08-03T08:46:38.437Z,53.22
2022-08-03T08:49:11.268Z,54.03
2022-08-03T08:51:59.765Z,51.60
2022-08-03T08:54:33.852Z,56.03
2022-08-03T08:57:21.078Z,55.95
2022-08-03T08:59:58.480Z,65.95
2022-08-03T09:02:32.146Z,61.92
2022-08-03T09:05:07.206Z,61.42
2022-08-03T09:07:37.767Z,62.22
2022-08-03T09:10:12.692Z,63.05
2022-08-03T09:12:49.041Z,60.08
2022-08-03T09:15:25.094Z,56.53
2022-08-03T09:17:57.806Z,57.22
2022-08-03T09:20:31.620Z,62.20
2022-08-03T09:23:51.207Z,63.78
2022-08-03T09:26:02.650Z,55.78
2022-08-03T09:28:59.964Z,62.22
2022-08-03T09:34:14.828Z,58.50
2022-08-03T09:36:50.203Z,61.67
2022-08-03T09:39:37.468Z,54.50
2022-08-03T09:42:16.185Z,55.88
2022-08-03T09:44:50.936Z,57.15
2022-08-03T09:47:32.260Z,56.72
2022-08-03T09:50:11.612Z,60.15
2022-08-03T09:52:49.677Z,54.25
2022-08-03T09:56:35.294Z,54.78
2022-08-03T09:58:15.469Z,48.40
2022-08-03T10:01:06.777Z,51.42
2022-08-03T10:04:03.276Z,51.67
2022-08-03T10:06:29.554Z,41.83
2022-08-03T10:09:16.821Z,52.55
2022-08-03T10:11:48.052Z,40.95
2022-08-03T10:14:20.561Z,45.17
2022-08-03T10:16:51.506Z,43.25
2022-08-03T10:19:21.323Z,41.63
2022-08-03T10:22:02.674Z,43.42
2022-08-03T10:24:36.548Z,48.75
2022-08-03T10:27:09.412Z,43.13
2022-08-03T10:29:42.486Z,42.15
2022-08-03T10:32:41.552Z,40.22
2022-08-03T10:35:21.108Z,44.17
2022-08-03T10:37:59.314Z,47.33
2022-08-03T10:40:49.589Z,47.42
2022-08-03T10:43:24.382Z,41.50
2022-08-03T10:45:54.745Z,52.22
2022-08-03T10:48:25.807Z,47.72
2022-08-03T10:50:55.774Z,43.75
2022-08-03T10:53:44.123Z,38.42
2022-08-03T10:56:54.832Z,39.80
2022-08-03T10:59:52.117Z,36.67
2022-08-03T11:02:22.341Z,37.78
2022-08-03T11:05:29.307Z,31.23
2022-08-03T11:08:24.301Z,32.13
2022-08-03T11:11:03.154Z,26.52
2022-08-03T11:13:34.877Z,25.83
2022-08-03T11:16:22.452Z,26.85
2022-08-03T11:19:23.767Z,23.48
2022-08-03T11:21:58.646Z,24.95
2022-08-03T11:24:48.764Z,25.45
2022-08-03T11:27:22.577Z,25.42
2022-08-03T11:30:12.573Z,23.88
2022-08-03T11:32:46.679Z,22.00
2022-08-03T11:35:22.646Z,25.13
2022-08-03T11:38:04.599Z,20.25
2022-08-03T11:40:51.516Z,19.00
2022-08-03T11:43:28.985Z,25.65
2022-08-03T11:46:00.918Z,22.45
2022-08-03T11:48:37.347Z,21.60
2022-08-03T11:51:10.894Z,18.42
2022-08-03T11:53:45.585Z,19.48
2022-08-03T11:56:15.741Z,22.50
2022-08-03T11:59:19.258Z,24.30
2022-08-03T12:01:47.212Z,24.42
2022-08-03T12:04:17.427Z,22.00
2022-08-03T12:07:05.463Z,21.52
2022-08-03T12:09:37.315Z,20.17
2022-08-03T12:12:08.113Z,22.20
2022-08-03T12:14:50.786Z,17.90
2022-08-03T12:17:23.061Z,18.40
2022-08-03T12:19:53.077Z,18.52
2022-08-03T12:22:34.880Z,17.13
2022-08-03T12:25:06.277Z,18.15
2022-08-03T12:27:37.380Z,16.48
2022-08-03T12:30:07.711Z,17.50
2022-08-03T12:32:37.425Z,15.40
2022-08-03T12:35:07.738Z,15.13
2022-08-03T12:37:39.777Z,18.75
2022-08-03T12:40:15.117Z,17.13
2022-08-03T12:42:47.822Z,15.63
2022-08-03T12:45:28.834Z,13.15
2022-08-03T12:48:03.250Z,14.40
2022-08-03T12:50:35.466Z,14.00
2022-08-03T12:53:08.961Z,13.30
2022-08-03T12:56:05.367Z,14.40
2022-08-03T12:58:37.831Z,14.65
2022-08-03T13:01:10.792Z,16.20
2022-08-03T13:03:49.530Z,16.27
2022-08-03T13:06:26.214Z,13.13
2022-08-03T13:09:09.731Z,15.10
2022-08-03T13:11:53.556Z,14.65
2022-08-03T13:14:29.775Z,15.55
2022-08-03T13:16:59.762Z,17.65
2022-08-03T13:19:29.736Z,16.17
2022-08-03T13:22:04.205Z,18.75
2022-08-03T13:28:03.978Z,18.23
2022-08-03T13:29:57.340Z,17.75
2022-08-03T13:32:27.507Z,15.98
2022-08-03T13:34:57.302Z,17.05
2022-08-03T13:37:27.699Z,23.85
2022-08-03T13:40:02.232Z,17.52
2022-08-03T13:42:34.404Z,23.10
2022-08-03T13:45:06.811Z,19.48
2022-08-03T13:47:38.358Z,31.52
2022-08-03T13:50:08.734Z,18.25
2022-08-03T13:52:39.188Z,18.92
2022-08-03T13:55:09.561Z,19.48
2022-08-03T13:58:04.185Z,22.17
2022-08-03T14:00:29.802Z,17.42
2022-08-03T14:03:12.871Z,17.92
2022-08-03T14:05:47.052Z,18.25
2022-08-03T14:08:16.967Z,19.13
2022-08-03T14:10:47.083Z,16.85
2022-08-03T14:13:18.166Z,17.08
2022-08-03T14:15:50.382Z,16.50
2022-08-03T14:18:29.080Z,19.23
2022-08-03T14:21:06.627Z,17.52
2022-08-03T14:23:41.280Z,19.42
2022-08-03T14:26:11.653Z,18.15
2022-08-03T14:28:42.000Z,21.10
2022-08-03T14:31:15.509Z,15.10
2022-08-03T14:34:01.981Z,18.60
2022-08-03T14:36:31.818Z,18.90
2022-08-03T14:39:02.361Z,15.98
2022-08-03T14:41:32.476Z,18.17
2022-08-03T14:44:02.597Z,14.60
2022-08-03T14:46:33.487Z,17.83
2022-08-03T14:50:31.359Z,18.45
2022-08-03T14:51:54.171Z,14.02
2022-08-03T14:54:24.492Z,13.55
2022-08-03T14:56:54.401Z,13.80
2022-08-03T14:59:24.324Z,21.92
2022-08-03T15:02:06.335Z,18.88
2022-08-03T15:04:38.778Z,13.00
2022-08-03T15:07:08.545Z,15.13
2022-08-03T15:09:40.176Z,15.27
2022-08-03T15:12:10.525Z,16.38
2022-08-03T15:14:41.260Z,12.88
2022-08-03T15:17:11.441Z,16.25
2022-08-03T15:20:01.682Z,18.83
2022-08-03T15:22:34.544Z,17.25
2022-08-03T15:26:28.246Z,17.95
2022-08-03T15:28:03.445Z,17.10
2022-08-03T15:30:37.944Z,17.70
2022-08-03T15:33:08.333Z,21.83
2022-08-03T15:35:38.124Z,17.85
2022-08-03T15:38:09.590Z,18.20
2022-08-03T15:40:40.731Z,15.30
2022-08-03T15:43:11.134Z,19.00
2022-08-03T15:45:42.018Z,23.02
2022-08-03T15:48:12.235Z,19.20
2022-08-03T15:50:42.651Z,17.38
2022-08-03T15:53:13.742Z,14.68
2022-08-03T15:55:45.232Z,15.38
2022-08-03T15:59:04.552Z,18.75
2022-08-03T16:01:07.809Z,16.48
2022-08-03T16:03:37.879Z,19.00
2022-08-03T16:06:09.056Z,14.15
2022-08-03T16:08:38.941Z,17.85
2022-08-03T16:11:08.773Z,17.42
2022-08-03T16:14:13.209Z,13.93
2022-08-03T16:16:28.877Z,17.00
2022-08-03T16:18:58.614Z,19.80
2022-08-03T16:21:38.632Z,15.90
2022-08-03T16:24:24.243Z,18.63
2022-08-03T16:27:00.810Z,24.30
2022-08-03T16:29:30.877Z,15.00
2022-08-03T16:32:09.491Z,13.63
2022-08-03T16:34:40.685Z,17.40
2022-08-03T16:37:37.060Z,15.88
2022-08-03T16:40:03.148Z,21.08
2022-08-03T16:42:33.144Z,20.77
2022-08-03T16:45:03.578Z,16.08
2022-08-03T16:47:33.533Z,18.83
2022-08-03T16:50:08.943Z,19.42
2022-08-03T16:52:47.244Z,14.40
2022-08-03T16:55:53.349Z,17.33
2022-08-03T16:58:12.525Z,18.73
2022-08-03T17:00:46.313Z,15.50
2022-08-03T17:03:24.221Z,20.10
2022-08-03T17:05:55.406Z,17.80
2022-08-03T17:08:30.689Z,16.13
2022-08-03T17:11:01.227Z,18.75
2022-08-03T17:13:39.335Z,13.88
2022-08-03T17:16:15.450Z,14.35
2022-08-03T17:19:02.033Z,13.68
2022-08-03T17:21:39.924Z,14.25
2022-08-03T17:24:27.249Z,18.15
2022-08-03T17:26:59.926Z,16.45
2022-08-03T17:29:31.415Z,13.05
2022-08-03T17:32:07.831Z,14.73
2022-08-03T17:34:45.049Z,14.98
2022-08-03T17:37:50.763Z,18.50
2022-08-03T17:40:07.306Z,16.83
2022-08-03T17:44:14.170Z,16.95
2022-08-03T17:46:12.236Z,16.27
2022-08-03T17:48:43.742Z,17.35
2022-08-03T17:51:21.555Z,14.82
2022-08-03T17:54:18.185Z,16.65
2022-08-03T17:57:22.118Z,17.05
2022-08-03T18:00:29.669Z,21.95
2022-08-03T18:03:20.584Z,16.45
2022-08-03T18:06:10.418Z,17.70
2022-08-03T18:08:56.218Z,16.45
2022-08-03T18:11:35.615Z,18.83
2022-08-03T18:14:32.913Z,19.08
2022-08-03T18:17:10.419Z,17.67
2022-08-03T18:20:02.049Z,17.23
2022-08-03T18:22:31.078Z,19.17
2022-08-03T18:25:07.543Z,18.73
2022-08-03T18:27:38.579Z,16.38
2022-08-03T18:30:18.890Z,19.15
2022-08-03T18:35:53.054Z,21.00
2022-08-03T18:38:25.092Z,19.20
2022-08-03T18:40:55.621Z,20.95
2022-08-03T18:43:47.660Z,17.30
2022-08-03T18:46:50.869Z,18.83
2022-08-03T18:49:37.412Z,22.55
2022-08-03T18:52:17.955Z,18.50
2022-08-03T18:55:11.150Z,24.67
2022-08-03T18:58:15.959Z,19.90
2022-08-03T19:01:57.524Z,20.48
2022-08-03T19:04:13.012Z,21.27
2022-08-03T19:06:49.400Z,18.33
2022-08-03T19:09:52.944Z,22.85
2022-08-03T19:12:48.952Z,23.65
2022-08-03T19:15:41.291Z,19.05
2022-08-03T19:18:16.378Z,24.55
2022-08-03T19:20:47.690Z,21.30
2022-08-03T19:26:05.057Z,21.10
2022-08-03T19:28:57.901Z,24.13
2022-08-03T19:31:30.972Z,18.73
2022-08-03T19:34:02.182Z,21.25
2022-08-03T19:36:34.795Z,21.15
2022-08-03T19:39:11.117Z,24.88
2022-08-03T19:41:42.927Z,19.95
2022-08-03T19:44:28.441Z,23.33
2022-08-03T19:47:07.204Z,21.75
2022-08-03T19:50:05.977Z,25.05
2022-08-03T19:52:39.729Z,25.17
2022-08-03T19:55:12.836Z,23.60
2022-08-03T19:57:46.235Z,22.45
2022-08-03T20:00:26.630Z,23.65
2022-08-03T20:03:00.793Z,26.67
2022-08-03T20:05:44.926Z,23.00
2022-08-03T20:08:22.527Z,25.77
2022-08-03T20:10:52.880Z,21.08
2022-08-03T20:13:28.292Z,20.65
2022-08-03T20:18:27.806Z,20.42
2022-08-03T20:21:05.397Z,21.13
2022-08-03T20:24:00.030Z,27.30
2022-08-03T20:26:33.282Z,24.50
2022-08-03T20:29:10.108Z,23.45
2022-08-03T20:31:41.447Z,24.95
2022-08-03T20:34:11.407Z,24.25
2022-08-03T20:36:47.837Z,21.25
2022-08-03T20:39:17.614Z,27.20
2022-08-03T20:41:48.266Z,24.50
2022-08-03T20:44:18.014Z,24.67
2022-08-03T20:47:00.486Z,28.15
2022-08-03T20:49:31.470Z,25.48
2022-08-03T20:55:12.961Z,25.48
2022-08-03T20:57:49.234Z,27.30
2022-08-03T21:00:22.250Z,24.67
2022-08-03T21:02:52.043Z,26.95
2022-08-03T21:05:47.644Z,26.23
2022-08-03T21:08:15.242Z,29.27
2022-08-03T21:10:47.601Z,27.63
2022-08-03T21:13:05.402Z,18.52
2022-08-03T21:13:07.593Z,23.45
2022-08-03T21:13:33.234Z,26.15
2022-08-03T21:16:13.965Z,26.50
2022-08-03T21:18:49.815Z,27.95
2022-08-03T21:21:23.127Z,29.40
2022-08-03T21:23:55.299Z,27.98
2022-08-03T21:26:27.557Z,29.00
2022-08-03T21:28:58.616Z,28.95
2022-08-03T21:31:28.752Z,26.67
2022-08-03T21:34:01.662Z,26.98
2022-08-03T21:36:34.787Z,28.02
2022-08-03T21:39:08.618Z,28.20
2022-08-03T21:41:41.507Z,26.50
2022-08-03T21:44:12.450Z,28.40
2022-08-03T21:46:44.164Z,30.67
2022-08-03T21:50:02.676Z,24.67
2022-08-03T21:52:09.217Z,28.98
2022-08-03T21:54:44.746Z,28.63
2022-08-03T21:57:24.806Z,28.10
2022-08-03T21:59:57.729Z,29.50
2022-08-03T22:02:32.439Z,26.25
2022-08-03T22:05:05.114Z,24.25
2022-08-03T22:07:36.170Z,26.30
2022-08-03T22:10:07.944Z,30.73
2022-08-03T22:12:38.200Z,32.05
2022-08-03T22:15:10.825Z,27.40
2022-08-03T22:17:55.173Z,29.65
2022-08-03T22:20:27.288Z,31.13
2022-08-03T22:23:01.655Z,27.13
2022-08-03T22:25:35.301Z,30.00
2022-08-03T22:28:10.314Z,25.38
2022-08-03T22:30:42.026Z,26.13
2022-08-03T22:33:13.617Z,28.90
2022-08-03T22:35:51.464Z,27.83
2022-08-03T22:38:21.477Z,28.02
2022-08-03T22:40:52.048Z,30.17
2022-08-03T22:43:29.129Z,30.35
2022-08-03T22:46:09.680Z,34.92
2022-08-03T22:48:42.573Z,32.15
2022-08-03T22:51:12.357Z,29.15
2022-08-03T22:53:42.239Z,32.70
2022-08-03T22:56:12.331Z,28.42
2022-08-03T22:58:43.634Z,27.88
2022-08-03T23:01:15.225Z,26.30
2022-08-03T23:04:00.924Z,31.33
2022-08-03T23:06:44.084Z,31.20
2022-08-03T23:09:16.909Z,30.45
2022-08-03T23:11:48.417Z,32.78
2022-08-03T23:14:20.817Z,28.38
2022-08-03T23:16:52.447Z,28.45
2022-08-03T23:19:25.895Z,31.67
2022-08-03T23:22:03.829Z,36.95
2022-08-03T23:24:38.075Z,29.73
2022-08-03T23:27:09.691Z,33.95
2022-08-03T23:29:43.732Z,34.35
2022-08-03T23:32:15.015Z,41.33
2022-08-03T23:35:04.917Z,32.40
2022-08-03T23:37:34.915Z,29.63
2022-08-03T23:40:27.345Z,34.92
2022-08-03T23:42:59.444Z,28.40
2022-08-03T23:45:31.922Z,29.70
2022-08-03T23:48:02.857Z,25.10
2022-08-03T23:50:45.412Z,35.15
2022-08-03T23:53:42.244Z,31.15
2022-08-03T23:56:23.130Z,36.78
2022-08-03T23:59:02.430Z,43.92
